Airfield :
LOGIN :

Register | Disclaimer

   EN    FR    IT 

 










Legend :    VFR   Marginal VFR   IFR   Intensive IFR   Very Intensive IFR
Visi :
Ceiling :
>= 8 km
>= 3000ft
5 to 8 km
1000 to 3000 ft
1500m to 5 km
500 to 1000 ft
800 to 1500m
200 to 500 ft
< 800m
< 200 ft
Symbols :   Thunderstorms  Fog  Heavy snow  Heavy precipitations  Wind > 20 kt
SIGMETs :     Misc.  Thunderstorms  Icing  Turbulence  Mountain Waves  Volcanic Ashes







- Airport Elevation : 72 ft
- IATA code : UDE


EHVK - Volkel Airbase

CURRENT METAR :
  • 200055Z AUTO 21009KT 180V250 9999 FEW015CB BKN031 BKN035 01/00 Q1008 BLU

EXPIRED METARs :
  • 200025Z AUTO 21009KT 180V250 9999 BKN029 BKN032 BKN039 01/00 Q1008 BLU
  • 192355Z AUTO 23010KT 9999 SCT036 BKN048 BKN057 01/00 Q1008 BLU
  • 192335Z AUTO 22012KT 200V270 9999 -RA FEW009 BKN010 BKN013 FEW015CB 02/01 Q1008 GRN
  • 192331Z AUTO 22011KT 9999 -RA FEW009 SCT012 FEW015CB BKN034 02/01 Q1008 GRN
  • 192306Z AUTO 23013KT 9999 FEW006 SCT047 BKN058 01/00 Q1008 BLU
  • 192255Z AUTO 23012KT 190V260 9999 SCT009 OVC010 02/00 Q1008 GRN
  • 192248Z AUTO 22009KT 190V260 9999 -RA SCT012 BKN015 OVC019 02/00 Q1008 GRN
  • 192237Z AUTO 23007KT 9999 -UP SCT015 BKN036 OVC130 01/M00 Q1008 WHT
  • 192225Z AUTO 23009KT 9999 OVC140 01/M00 Q1008 BLU

Expired Forecast.
No reported NOTAMs for that airfield.



MET'MAP, your aeronautical weather chart ! - Copyright ORBIFLY December 2007 - Disclaimer

ORBIFLY MET'MAP TEAM :

Programming & Development : Alexandra Zaïnal
Concept & Development : Baudouin d'Aumeries
Co-Development & Prog : Marc-Olivier Méhu
Technical & hardware support : Manuel Goepfert

Contact : metmap@orbifly.com




SOURCES & CREDITS :

   NOAA